Latest Weather Observations for Centre Island

IDD60801

Issued at 3:01 pm CST Sunday 7 February 2016 (issued every 30 minutes, with the page automatically refreshed every 10 minutes)

About weather observations | Map of weather stations | Latest weather observations for NT | Other Formats
Station Details ID: 014703 Name: CENTRE ISLAND Lat: -15.74 Lon: 136.82 Height: 12.2 m
Data from the previous 72 hours. | See also: Recent months at Centre Island
Date/Time
CST
Temp
°C
App
Temp
°C
Dew
Point
Rel
Hum
%
Delta-T
°C
Wind Press
QNH
hPa
Press
MSL
hPa
Rain
since 9 am
mm
Dir
 
Spd
km/h
Gust
km/h
Spd
kts
Gust
kts
07/03:00pm 35.7 35.8 19.2 38 10.9 NNE 17 22 9 12 1004.8 1004.7 0.0
07/02:30pm 35.6 35.5 18.7 37 11.1 NNE 17 20 9 11 1005.0 1004.9 0.0
07/02:00pm 35.8 37.1 19.3 38 10.9 ENE 11 15 6 8 1005.5 1005.4 0.0
07/01:30pm 35.5 36.3 17.2 33 11.8 E 9 11 5 6 1005.8 1005.7 0.0
07/01:00pm 35.1 35.2 15.4 30 12.3 NE 9 11 5 6 1006.1 1006.0 0.0
07/12:30pm 34.3 35.0 17.1 36 11.0 ENE 9 13 5 7 1006.5 1006.4 0.0
07/12:00pm 33.8 34.5 16.2 35 11.1 ESE 7 11 4 6 1006.7 1006.6 0.0
07/11:30am 33.1 33.0 16.0 35 10.8 S 11 13 6 7 1007.0 1006.9 0.0
07/11:00am 33.8 33.4 15.3 33 11.5 SSW 11 13 6 7 1007.3 1007.2 0.0
07/10:30am 32.7 33.0 16.9 38 10.1 WSW 11 15 6 8 1007.4 1007.3 0.0
07/10:00am 31.9 32.0 16.6 39 9.6 WSW 11 15 6 8 1007.4 1007.3 0.0
07/09:30am 30.7 31.1 19.1 50 7.6 WSW 15 17 8 9 1007.5 1007.4 0.0
07/09:00am 30.2 30.7 19.3 52 7.1 WSW 15 17 8 9 1007.4 1007.3 0.0
07/08:30am 29.8 30.9 20.4 57 6.2 WSW 15 20 8 11 1007.2 1007.1 0.0
07/08:00am 29.4 30.5 19.7 56 6.3 WSW 13 17 7 9 1006.8 1006.7 0.0
07/07:30am 28.3 29.6 20.1 61 5.4 WSW 13 15 7 8 1006.6 1006.5 0.0
07/07:00am 27.1 29.8 20.7 68 4.2 W 7 9 4 5 1006.3 1006.2 0.0
07/06:30am 26.4 27.9 19.8 67 4.3 WNW 11 13 6 7 1006.1 1006.0 0.0
07/06:00am 26.1 28.1 20.0 69 4.0 WNW 9 13 5 7 1005.8 1005.7 0.0
07/05:30am 27.4 29.9 21.7 71 3.8 W 11 13 6 7 1005.7 1005.6 0.0
07/05:00am 27.3 29.6 22.0 73 3.6 W 13 15 7 8 1005.6 1005.5 0.0
07/04:30am 27.4 29.9 22.4 74 3.4 W 13 17 7 9 1005.5 1005.4 0.0
07/04:00am 27.4 29.9 22.4 74 3.4 W 13 15 7 8 1005.4 1005.3 0.0
07/03:30am 27.7 30.1 22.2 72 3.7 W 13 15 7 8 1005.3 1005.2 0.0
07/03:00am 27.5 30.2 22.9 76 3.1 W 13 15 7 8 1005.1 1005.0 0.0
07/02:30am 27.4 30.6 23.0 77 3.0 WNW 11 15 6 8 1005.4 1005.3 0.0
07/02:00am 27.0 30.6 23.0 79 2.7 WNW 9 11 5 6 1005.7 1005.6 0.0
07/01:30am 27.2 30.8 22.4 75 3.2 NW 7 9 4 5 1005.9 1005.8 0.0
07/01:00am 27.4 31.6 23.4 79 2.7 W 7 9 4 5 1006.1 1006.0 0.0
07/12:30am 27.6 31.8 23.2 77 3.0 WNW 6 7 3 4 1006.3 1006.2 0.0
07/12:00am 28.2 31.6 22.0 69 4.2 NNW 7 7 4 4 1006.6 1006.5 0.0
 
Date/Time
CST
Temp
°C
App
Temp
°C
Dew
Point
Rel
Hum
%
Delta-T
°C
Wind Press
QNH
hPa
Press
MSL
hPa
Rain
since 9 am
mm
Dir
 
Spd
km/h
Gust
km/h
Spd
kts
Gust
kts
06/11:30pm 28.0 30.3 19.8 61 5.4 NNW 7 9 4 5 1006.6 1006.5 0.0
06/11:00pm 28.1 30.2 18.2 55 6.3 WNW 4 6 2 3 1006.7 1006.6 0.0
06/10:30pm 28.8 29.4 16.7 48 7.6 NW 9 9 5 5 1006.9 1006.8 0.0
06/10:00pm 29.7 29.3 16.1 43 8.4 NNW 13 17 7 9 1006.6 1006.5 0.0
06/09:30pm 29.1 32.1 18.5 52 6.8 CALM 0 0 0 0 1006.3 1006.2 0.0
06/09:00pm 30.0 31.1 18.1 49 7.6 W 9 9 5 5 1005.8 1005.7 0.0
06/08:30pm 30.5 31.2 17.9 47 8.1 W 11 13 6 7 1005.4 1005.3 0.0
06/08:00pm 30.9 31.8 18.3 47 8.1 W 11 13 6 7 1005.1 1005.0 0.0
06/07:30pm 32.3 32.5 20.2 48 8.1 W 19 22 10 12 1004.7 1004.6 0.0
06/07:00pm 32.7 31.5 19.2 44 8.9 WSW 24 28 13 15 1004.3 1004.2 0.0
06/06:30pm 33.8 33.3 17.9 38 10.3 WSW 17 20 9 11 1004.1 1004.0 0.0
06/06:00pm 34.6 33.7 17.8 37 10.9 WSW 19 20 10 11 1003.7 1003.6 0.0
06/05:30pm 35.0 33.1 16.8 34 11.7 WSW 22 28 12 15 1003.4 1003.3 0.0
06/05:00pm 35.7 34.4 14.9 29 13.0 WSW 15 17 8 9 1003.3 1003.2 0.0
06/04:30pm 35.9 35.3 13.4 26 13.8 WSW 9 13 5 7 1003.5 1003.4 0.0
06/04:00pm 35.4 34.6 15.2 30 12.6 W 13 17 7 9 1003.7 1003.6 0.0
06/03:30pm 35.5 33.2 14.2 28 13.2 W 19 24 10 13 1004.0 1003.9 0.0
06/03:00pm 35.4 33.9 15.2 30 12.7 WSW 17 26 9 14 1004.3 1004.2 0.0
06/02:30pm 35.5 35.3 14.7 28 13.0 WSW 9 15 5 8 1004.6 1004.5 0.0
06/02:00pm 35.0 34.7 14.3 29 12.8 W 9 13 5 7 1004.8 1004.7 0.0
06/01:30pm 34.5 33.8 14.4 30 12.4 W 11 13 6 7 1004.9 1004.8 0.0
06/01:00pm 34.0 34.6 16.8 35 11.0 W 9 13 5 7 1005.3 1005.2 0.0
06/12:30pm 32.7 34.2 17.7 40 9.7 WSW 6 9 3 5 1005.8 1005.7 0.0
06/12:00pm 31.8 32.8 16.9 40 9.5 W 7 11 4 6 1006.1 1006.0 0.0
06/11:30am 32.2 33.7 18.0 42 9.2 S 7 11 4 6 1006.2 1006.1 0.0
06/11:00am 31.3 31.8 16.5 41 9.3 SSE 9 11 5 6 1006.6 1006.5 0.0
06/10:30am 31.3 30.7 15.7 39 9.7 SSE 13 17 7 9 1006.8 1006.7 0.0
06/10:00am 31.2 31.0 16.8 42 9.1 S 13 19 7 10 1006.9 1006.8 0.0
06/09:30am 30.5 30.4 17.9 47 8.1 SSW 15 20 8 11 1006.9 1006.8 0.0
06/09:00am 30.7 29.8 17.7 45 8.3 S 19 26 10 14 1006.9 1006.8 0.0
06/08:30am 29.6 27.7 16.8 46 8.1 SSE 22 26 12 14 1006.4 1006.3 0.0
06/08:00am 29.4 27.6 15.9 44 8.4 S 20 28 11 15 1006.1 1006.0 0.0
06/07:30am 28.8 27.4 17.0 49 7.4 S 20 26 11 14 1005.8 1005.7 0.0
06/07:00am 28.4 26.1 15.7 46 7.8 S 22 30 12 16 1005.4 1005.3 0.0
06/06:30am 27.9 27.2 17.4 52 6.6 SSW 17 24 9 13 1005.3 1005.2 0.0
06/06:00am 27.4 26.7 17.3 54 6.4 SW 17 22 9 12 1005.2 1005.1 0.0
06/05:30am 29.1 26.8 15.6 44 8.3 SSW 22 32 12 17 1004.9 1004.8 0.0
06/05:00am 28.3 28.1 17.5 52 6.8 SW 15 20 8 11 1004.6 1004.5 0.0
06/04:30am 28.7 27.6 17.2 49 7.3 SW 19 24 10 13 1004.3 1004.2 0.0
06/04:00am 29.0 28.0 17.5 49 7.3 SSW 19 26 10 14 1004.2 1004.1 0.0
06/03:30am 29.0 27.8 17.5 49 7.3 SSW 20 26 11 14 1004.1 1004.0 0.0
06/03:00am 29.0 27.4 17.5 49 7.3 SW 22 30 12 16 1003.9 1003.8 0.0
06/02:30am 29.3 27.8 17.8 50 7.3 SSW 22 30 12 16 1004.0 1003.9 0.0
06/02:00am 29.2 28.3 18.3 51 7.0 SW 20 30 11 16 1004.1 1004.0 0.0
06/01:30am 29.5 28.0 17.7 49 7.5 SW 22 30 12 16 1004.4 1004.3 0.0
06/01:00am 29.4 28.4 17.9 50 7.3 SW 20 28 11 15 1004.8 1004.7 0.0
06/12:30am 29.5 28.8 18.3 51 7.2 SW 19 26 10 14 1005.2 1005.1 0.0
06/12:00am 29.7 29.1 18.5 51 7.2 WSW 19 22 10 12 1005.5 1005.4 0.0
 
Date/Time
CST
Temp
°C
App
Temp
°C
Dew
Point
Rel
Hum
%
Delta-T
°C
Wind Press
QNH
hPa
Press
MSL
hPa
Rain
since 9 am
mm
Dir
 
Spd
km/h
Gust
km/h
Spd
kts
Gust
kts
05/11:30pm 30.0 30.1 20.0 55 6.6 WSW 19 24 10 13 1005.8 1005.7 0.0
05/11:00pm 30.0 30.1 18.4 49 7.5 SW 15 22 8 12 1005.9 1005.8 0.0
05/10:30pm 30.6 30.1 17.7 46 8.2 SW 17 24 9 13 1005.9 1005.8 0.0
05/10:00pm 30.7 32.0 20.9 56 6.5 WSW 15 20 8 11 1005.7 1005.6 0.0
05/09:30pm 29.2 31.4 21.2 62 5.4 WNW 11 15 6 8 1005.3 1005.2 0.0
05/09:00pm 29.2 32.0 20.9 61 5.5 NW 7 9 4 5 1005.1 1005.0 0.0
05/08:30pm 31.0 32.9 19.7 51 7.4 SSW 9 11 5 6 1004.8 1004.7 0.0
05/08:00pm 31.5 33.0 19.8 49 7.7 S 11 13 6 7 1004.4 1004.3 0.0
05/07:30pm 31.8 33.4 20.7 51 7.4 SSE 13 15 7 8 1003.9 1003.8 0.0
05/07:00pm 32.0 33.8 21.2 52 7.3 S 13 15 7 8 1003.7 1003.6 0.0
05/06:30pm 32.3 35.2 21.8 54 7.1 S 9 13 5 7 1003.5 1003.4 0.0
05/06:00pm 32.9 34.6 20.1 47 8.5 S 11 15 6 8 1003.3 1003.2 0.0
05/05:30pm 33.5 35.3 20.3 46 8.8 SSE 11 13 6 7 1003.2 1003.1 0.0
05/05:00pm 34.1 34.7 18.6 40 10.1 SSE 13 17 7 9 1003.2 1003.1 0.0
05/04:30pm 35.3 35.4 17.5 34 11.5 SSW 13 20 7 11 1003.2 1003.1 0.0
05/04:00pm 34.8 34.2 16.6 33 11.6 SSW 15 22 8 12 1003.2 1003.1 0.0
05/03:30pm 35.6 34.3 16.8 32 12.1 SW 19 24 10 13 1003.2 1003.1 0.0
05/03:00pm 35.5 34.7 17.2 33 11.8 SW 17 24 9 13 1003.4 1003.3 0.0
05/02:30pm 33.5 33.1 18.0 39 10.1 S 17 20 9 11 1003.6 1003.5 0.0
05/02:00pm 33.6 33.1 17.7 38 10.2 SSW 17 22 9 12 1003.9 1003.8 0.0
05/01:30pm 33.3 32.5 17.9 40 10.0 S 19 24 10 13 1004.2 1004.1 0.0
05/01:00pm 34.0 33.1 18.1 39 10.3 S 20 24 11 13 1004.6 1004.5 0.0
05/12:30pm 33.7 32.5 17.4 37 10.5 S 20 24 11 13 1005.2 1005.1 0.0
05/12:00pm 33.3 32.4 18.3 41 9.8 S 20 24 11 13 1005.7 1005.6 0.0
05/11:30am 33.4 31.8 18.3 40 9.8 S 24 28 13 15 1005.9 1005.8 0.0
05/11:00am 32.0 30.6 18.9 45 8.5 SSW 24 32 13 17 1006.2 1006.1 0.0
05/10:30am 31.5 30.7 20.1 50 7.6 S 24 30 13 16 1006.5 1006.4 0.0
05/10:00am 31.3 30.3 19.6 49 7.7 SSW 24 32 13 17 1006.8 1006.7 0.0
05/09:30am 30.5 29.9 20.4 54 6.7 SSW 24 32 13 17 1006.8 1006.7 0.0
05/09:00am 29.6 29.2 20.2 57 6.2 SSW 22 28 12 15 1007.0 1006.9 0.0
05/08:30am 29.0 28.5 19.9 58 6.0 SSW 22 32 12 17 1007.1 1007.0 0.0
05/08:00am 28.3 28.6 20.3 62 5.3 SW 19 32 10 17 1006.7 1006.6 0.0
05/07:30am 28.4 28.8 20.9 64 5.0 SW 20 30 11 16 1006.6 1006.5 0.0
05/07:00am 28.0 28.6 21.1 66 4.6 SW 19 24 10 13 1006.2 1006.1 0.0
05/06:30am 27.9 28.5 21.0 66 4.6 SW 19 24 10 13 1006.0 1005.9 0.0
05/06:00am 27.8 28.2 20.6 65 4.8 SW 19 24 10 13 1005.9 1005.8 0.0
05/05:30am 28.0 28.6 21.1 66 4.6 WSW 19 24 10 13 1005.8 1005.7 0.0
05/05:00am 28.3 28.2 20.8 63 5.0 WSW 22 28 12 15 1005.6 1005.5 0.0
05/04:30am 28.5 28.9 21.8 67 4.5 WSW 22 30 12 16 1005.3 1005.2 0.0
05/04:00am 28.7 27.9 21.7 66 4.7 WSW 28 33 15 18 1005.0 1004.9 0.0
05/03:30am 28.6 28.4 22.1 68 4.4 W 26 32 14 17 1005.0 1004.9 0.0
05/03:00am 28.1 29.7 22.8 73 3.6 W 19 22 10 12 1005.1 1005.0 0.0
05/02:30am 28.4 31.1 22.9 72 3.8 WNW 13 17 7 9 1005.1 1005.0 0.0
05/02:00am 29.3 30.9 22.8 68 4.4 WSW 19 22 10 12 1005.1 1005.0 0.0
05/01:30am 29.0 30.4 22.5 68 4.4 WSW 19 22 10 12 1005.2 1005.1 0.0
05/01:00am 28.6 30.9 24.4 78 2.9 WSW 20 28 11 15 1005.4 1005.3 0.0
05/12:30am 28.4 32.2 24.0 77 3.0 W 11 13 6 7 1005.8 1005.7 0.0
05/12:00am 28.1 32.3 23.5 76 3.2 WNW 7 9 4 5 1006.2 1006.1 0.0
 
Date/Time
CST
Temp
°C
App
Temp
°C
Dew
Point
Rel
Hum
%
Delta-T
°C
Wind Press
QNH
hPa
Press
MSL
hPa
Rain
since 9 am
mm
Dir
 
Spd
km/h
Gust
km/h
Spd
kts
Gust
kts
04/11:30pm 28.4 32.3 22.9 72 3.8 WNW 7 9 4 5 1006.6 1006.5 0.0
04/11:00pm 29.1 32.6 22.1 66 4.7 SW 7 9 4 5 1006.5 1006.4 0.0
04/10:30pm 29.4 32.9 22.1 65 4.9 S 7 9 4 5 1006.8 1006.7 0.0
04/10:00pm 29.5 33.2 22.5 66 4.8 S 7 9 4 5 1006.7 1006.6 0.0
04/09:30pm 29.6 33.1 22.8 67 4.7 SSE 9 13 5 7 1006.6 1006.5 0.0
04/09:00pm 29.9 32.5 22.6 65 5.0 SSE 13 17 7 9 1006.3 1006.2 0.0
04/08:30pm 29.9 32.5 22.6 65 5.0 SSE 13 19 7 10 1005.8 1005.7 0.0
04/08:00pm 29.9 32.1 22.6 65 5.0 SSE 15 19 8 10 1005.4 1005.3 0.0
04/07:30pm 30.0 32.0 22.9 65 4.9 SSE 17 19 9 10 1005.1 1005.0 0.0
04/07:00pm 30.1 31.9 22.5 63 5.2 SSE 17 20 9 11 1004.9 1004.8 0.0
04/06:30pm 30.3 31.5 22.5 63 5.3 SSE 20 26 11 14 1004.8 1004.7 0.0
04/06:00pm 30.4 31.7 22.6 63 5.3 S 20 24 11 13 1004.6 1004.5 0.0
04/05:30pm 30.7 31.7 22.8 62 5.4 S 22 30 12 16 1004.4 1004.3 0.0
04/05:00pm 30.7 31.5 23.1 64 5.2 SSW 24 30 13 16 1004.3 1004.2 0.0
04/04:30pm 30.6 32.4 23.3 65 5.0 SSW 19 24 10 13 1004.4 1004.3 0.0
04/04:00pm 30.7 32.4 23.1 64 5.2 SSW 19 24 10 13 1004.5 1004.4 0.0
04/03:30pm 30.9 32.6 23.0 62 5.4 SW 19 26 10 14 1004.6 1004.5 0.0

Other Formats:

Comma delimited format used in spreadsheet applications
http://www.bom.gov.au/fwo/IDD60801/IDD60801.94248.axf

JavaScript Object Notation format (JSON) in row-major order
http://www.bom.gov.au/fwo/IDD60801/IDD60801.94248.json